sensor_id;sensor_type;location;lat;lon;timestamp;P1;durP1;ratioP1;P2;durP2;ratioP2
25359;SDS011;13311;51.386;0.016;2024-02-26T00:04:07;18.15;;;9.32;;
25359;SDS011;13311;51.386;0.016;2024-02-26T00:09:08;16.73;;;10.05;;
25359;SDS011;13311;51.386;0.016;2024-02-26T00:14:10;15.15;;;9.20;;
25359;SDS011;13311;51.386;0.016;2024-02-26T00:19:11;16.20;;;9.35;;
25359;SDS011;13311;51.386;0.016;2024-02-26T00:24:11;17.30;;;8.68;;
25359;SDS011;13311;51.386;0.016;2024-02-26T00:29:13;18.80;;;8.70;;
25359;SDS011;13311;51.386;0.016;2024-02-26T00:34:14;15.93;;;8.98;;
25359;SDS011;13311;51.386;0.016;2024-02-26T00:39:14;20.80;;;9.07;;
25359;SDS011;13311;51.386;0.016;2024-02-26T00:44:15;14.55;;;8.15;;
25359;SDS011;13311;51.386;0.016;2024-02-26T00:49:16;19.75;;;8.27;;
25359;SDS011;13311;51.386;0.016;2024-02-26T00:54:17;21.58;;;8.30;;
25359;SDS011;13311;51.386;0.016;2024-02-26T00:59:18;20.15;;;9.43;;
25359;SDS011;13311;51.386;0.016;2024-02-26T01:04:19;18.92;;;10.02;;
25359;SDS011;13311;51.386;0.016;2024-02-26T01:09:20;17.10;;;8.75;;
25359;SDS011;13311;51.386;0.016;2024-02-26T01:14:20;15.00;;;9.25;;
25359;SDS011;13311;51.386;0.016;2024-02-26T01:19:21;20.38;;;9.90;;
25359;SDS011;13311;51.386;0.016;2024-02-26T01:24:22;20.00;;;9.43;;
25359;SDS011;13311;51.386;0.016;2024-02-26T01:29:23;16.90;;;10.10;;
25359;SDS011;13311;51.386;0.016;2024-02-26T01:34:24;24.13;;;10.45;;
25359;SDS011;13311;51.386;0.016;2024-02-26T01:39:24;18.40;;;10.85;;
25359;SDS011;13311;51.386;0.016;2024-02-26T01:44:26;23.40;;;10.90;;
25359;SDS011;13311;51.386;0.016;2024-02-26T01:49:27;22.52;;;10.20;;
25359;SDS011;13311;51.386;0.016;2024-02-26T01:54:29;19.17;;;10.63;;
25359;SDS011;13311;51.386;0.016;2024-02-26T01:59:30;19.55;;;10.10;;
25359;SDS011;13311;51.386;0.016;2024-02-26T02:04:32;16.35;;;10.00;;
25359;SDS011;13311;51.386;0.016;2024-02-26T02:09:34;21.80;;;9.30;;
25359;SDS011;13311;51.386;0.016;2024-02-26T02:14:35;18.42;;;9.80;;
25359;SDS011;13311;51.386;0.016;2024-02-26T02:19:36;16.83;;;9.20;;
25359;SDS011;13311;51.386;0.016;2024-02-26T02:24:37;12.80;;;8.55;;
25359;SDS011;13311;51.386;0.016;2024-02-26T02:29:38;14.43;;;8.75;;
25359;SDS011;13311;51.386;0.016;2024-02-26T02:34:39;15.48;;;9.02;;
25359;SDS011;13311;51.386;0.016;2024-02-26T02:39:40;19.38;;;9.50;;
25359;SDS011;13311;51.386;0.016;2024-02-26T02:44:43;18.35;;;8.70;;
25359;SDS011;13311;51.386;0.016;2024-02-26T02:49:44;20.67;;;8.07;;
25359;SDS011;13311;51.386;0.016;2024-02-26T02:54:45;18.65;;;8.65;;
25359;SDS011;13311;51.386;0.016;2024-02-26T02:59:47;14.52;;;6.95;;
25359;SDS011;13311;51.386;0.016;2024-02-26T03:04:48;10.88;;;6.57;;
25359;SDS011;13311;51.386;0.016;2024-02-26T03:09:49;14.60;;;6.28;;
25359;SDS011;13311;51.386;0.016;2024-02-26T03:14:50;13.38;;;6.03;;
25359;SDS011;13311;51.386;0.016;2024-02-26T03:19:54;12.50;;;6.20;;
25359;SDS011;13311;51.386;0.016;2024-02-26T03:24:55;14.77;;;6.35;;
25359;SDS011;13311;51.386;0.016;2024-02-26T03:29:55;13.43;;;6.07;;
25359;SDS011;13311;51.386;0.016;2024-02-26T03:34:57;13.40;;;6.20;;
25359;SDS011;13311;51.386;0.016;2024-02-26T03:39:58;8.77;;;5.50;;
25359;SDS011;13311;51.386;0.016;2024-02-26T03:45:01;13.15;;;6.40;;
25359;SDS011;13311;51.386;0.016;2024-02-26T03:50:02;11.02;;;5.28;;
25359;SDS011;13311;51.386;0.016;2024-02-26T03:55:05;11.75;;;5.43;;
25359;SDS011;13311;51.386;0.016;2024-02-26T04:00:06;13.15;;;6.00;;
25359;SDS011;13311;51.386;0.016;2024-02-26T04:05:11;13.68;;;6.38;;
25359;SDS011;13311;51.386;0.016;2024-02-26T04:10:13;11.25;;;5.47;;
25359;SDS011;13311;51.386;0.016;2024-02-26T04:15:14;14.85;;;5.78;;
25359;SDS011;13311;51.386;0.016;2024-02-26T04:20:15;8.02;;;5.57;;
25359;SDS011;13311;51.386;0.016;2024-02-26T04:25:17;8.57;;;4.35;;
25359;SDS011;13311;51.386;0.016;2024-02-26T04:30:18;9.55;;;4.93;;
25359;SDS011;13311;51.386;0.016;2024-02-26T04:35:18;11.80;;;4.85;;
25359;SDS011;13311;51.386;0.016;2024-02-26T04:40:19;9.85;;;4.72;;
25359;SDS011;13311;51.386;0.016;2024-02-26T04:45:23;10.93;;;5.13;;
25359;SDS011;13311;51.386;0.016;2024-02-26T04:50:24;11.32;;;4.40;;
25359;SDS011;13311;51.386;0.016;2024-02-26T04:55:25;10.00;;;3.47;;
25359;SDS011;13311;51.386;0.016;2024-02-26T05:00:26;12.95;;;4.30;;
25359;SDS011;13311;51.386;0.016;2024-02-26T05:05:27;9.85;;;4.18;;
25359;SDS011;13311;51.386;0.016;2024-02-26T05:10:28;7.75;;;3.67;;
25359;SDS011;13311;51.386;0.016;2024-02-26T05:15:28;8.18;;;3.55;;
25359;SDS011;13311;51.386;0.016;2024-02-26T05:20:29;8.65;;;4.68;;
25359;SDS011;13311;51.386;0.016;2024-02-26T05:25:31;7.60;;;3.50;;
25359;SDS011;13311;51.386;0.016;2024-02-26T05:30:32;8.80;;;3.60;;
25359;SDS011;13311;51.386;0.016;2024-02-26T05:35:33;6.55;;;3.33;;
25359;SDS011;13311;51.386;0.016;2024-02-26T05:40:34;8.27;;;3.13;;
25359;SDS011;13311;51.386;0.016;2024-02-26T05:45:35;10.77;;;3.67;;
25359;SDS011;13311;51.386;0.016;2024-02-26T05:50:36;10.75;;;4.07;;
25359;SDS011;13311;51.386;0.016;2024-02-26T05:55:37;14.00;;;3.38;;
25359;SDS011;13311;51.386;0.016;2024-02-26T06:00:38;10.73;;;3.30;;
25359;SDS011;13311;51.386;0.016;2024-02-26T06:05:39;12.10;;;3.22;;
25359;SDS011;13311;51.386;0.016;2024-02-26T06:10:40;8.55;;;2.60;;
25359;SDS011;13311;51.386;0.016;2024-02-26T06:15:41;10.60;;;2.17;;
25359;SDS011;13311;51.386;0.016;2024-02-26T06:20:42;11.48;;;2.70;;
25359;SDS011;13311;51.386;0.016;2024-02-26T06:25:43;7.82;;;2.45;;
25359;SDS011;13311;51.386;0.016;2024-02-26T06:30:44;5.22;;;2.13;;
25359;SDS011;13311;51.386;0.016;2024-02-26T06:35:46;6.68;;;1.95;;
25359;SDS011;13311;51.386;0.016;2024-02-26T06:40:47;8.98;;;1.88;;
25359;SDS011;13311;51.386;0.016;2024-02-26T06:45:48;9.68;;;1.73;;
25359;SDS011;13311;51.386;0.016;2024-02-26T06:50:49;6.05;;;1.80;;
25359;SDS011;13311;51.386;0.016;2024-02-26T06:55:50;4.28;;;1.77;;
25359;SDS011;13311;51.386;0.016;2024-02-26T07:00:51;8.55;;;2.17;;
25359;SDS011;13311;51.386;0.016;2024-02-26T07:05:52;10.50;;;2.03;;
25359;SDS011;13311;51.386;0.016;2024-02-26T07:10:53;5.80;;;1.33;;
25359;SDS011;13311;51.386;0.016;2024-02-26T07:15:54;7.55;;;1.30;;
25359;SDS011;13311;51.386;0.016;2024-02-26T07:20:55;5.55;;;1.58;;
25359;SDS011;13311;51.386;0.016;2024-02-26T07:25:55;9.68;;;1.33;;
25359;SDS011;13311;51.386;0.016;2024-02-26T07:30:56;6.00;;;1.40;;
25359;SDS011;13311;51.386;0.016;2024-02-26T07:35:57;8.95;;;1.45;;
25359;SDS011;13311;51.386;0.016;2024-02-26T07:40:58;8.85;;;2.17;;
25359;SDS011;13311;51.386;0.016;2024-02-26T07:45:59;3.50;;;1.42;;
25359;SDS011;13311;51.386;0.016;2024-02-26T07:50:59;4.38;;;1.30;;
25359;SDS011;13311;51.386;0.016;2024-02-26T07:56:00;12.07;;;1.55;;
25359;SDS011;13311;51.386;0.016;2024-02-26T08:01:01;8.80;;;2.58;;
25359;SDS011;13311;51.386;0.016;2024-02-26T08:06:02;7.07;;;1.95;;
25359;SDS011;13311;51.386;0.016;2024-02-26T08:11:03;6.28;;;2.05;;
25359;SDS011;13311;51.386;0.016;2024-02-26T08:16:04;5.18;;;1.60;;
25359;SDS011;13311;51.386;0.016;2024-02-26T08:21:05;6.53;;;1.40;;
25359;SDS011;13311;51.386;0.016;2024-02-26T08:26:06;4.30;;;1.20;;
25359;SDS011;13311;51.386;0.016;2024-02-26T08:31:10;3.45;;;1.13;;
25359;SDS011;13311;51.386;0.016;2024-02-26T08:36:11;8.57;;;1.65;;
25359;SDS011;13311;51.386;0.016;2024-02-26T08:41:13;7.60;;;1.70;;
25359;SDS011;13311;51.386;0.016;2024-02-26T08:46:13;5.72;;;1.85;;
25359;SDS011;13311;51.386;0.016;2024-02-26T08:51:14;3.97;;;1.65;;
25359;SDS011;13311;51.386;0.016;2024-02-26T08:56:15;8.88;;;2.08;;
25359;SDS011;13311;51.386;0.016;2024-02-26T09:01:17;4.65;;;1.70;;
25359;SDS011;13311;51.386;0.016;2024-02-26T09:06:17;8.18;;;1.50;;
25359;SDS011;13311;51.386;0.016;2024-02-26T09:11:18;5.15;;;1.50;;
25359;SDS011;13311;51.386;0.016;2024-02-26T09:16:19;5.57;;;1.67;;
25359;SDS011;13311;51.386;0.016;2024-02-26T09:21:20;5.70;;;1.35;;
25359;SDS011;13311;51.386;0.016;2024-02-26T09:26:23;3.60;;;1.40;;
25359;SDS011;13311;51.386;0.016;2024-02-26T09:31:24;7.55;;;1.40;;
25359;SDS011;13311;51.386;0.016;2024-02-26T09:36:24;4.80;;;1.02;;
25359;SDS011;13311;51.386;0.016;2024-02-26T09:41:27;4.18;;;1.30;;
25359;SDS011;13311;51.386;0.016;2024-02-26T09:46:29;7.47;;;1.63;;
25359;SDS011;13311;51.386;0.016;2024-02-26T09:51:31;5.82;;;1.30;;
25359;SDS011;13311;51.386;0.016;2024-02-26T09:56:32;5.50;;;1.42;;
25359;SDS011;13311;51.386;0.016;2024-02-26T10:01:33;11.52;;;1.52;;
25359;SDS011;13311;51.386;0.016;2024-02-26T10:06:35;4.28;;;1.20;;
25359;SDS011;13311;51.386;0.016;2024-02-26T10:11:37;4.07;;;1.45;;
25359;SDS011;13311;51.386;0.016;2024-02-26T10:16:40;4.75;;;1.30;;
25359;SDS011;13311;51.386;0.016;2024-02-26T10:21:41;9.75;;;2.00;;
25359;SDS011;13311;51.386;0.016;2024-02-26T10:26:45;4.47;;;1.63;;
25359;SDS011;13311;51.386;0.016;2024-02-26T10:31:47;4.65;;;1.25;;
25359;SDS011;13311;51.386;0.016;2024-02-26T10:36:48;3.85;;;0.98;;
25359;SDS011;13311;51.386;0.016;2024-02-26T10:41:49;2.53;;;0.90;;
25359;SDS011;13311;51.386;0.016;2024-02-26T10:46:50;7.13;;;1.30;;
25359;SDS011;13311;51.386;0.016;2024-02-26T10:51:55;5.38;;;1.00;;
25359;SDS011;13311;51.386;0.016;2024-02-26T10:56:59;8.63;;;1.35;;
25359;SDS011;13311;51.386;0.016;2024-02-26T11:02:01;3.45;;;1.15;;
25359;SDS011;13311;51.386;0.016;2024-02-26T11:07:03;4.35;;;1.40;;
25359;SDS011;13311;51.386;0.016;2024-02-26T11:12:05;2.25;;;1.00;;
25359;SDS011;13311;51.386;0.016;2024-02-26T11:17:11;4.10;;;1.27;;
25359;SDS011;13311;51.386;0.016;2024-02-26T11:22:13;3.70;;;1.23;;
25359;SDS011;13311;51.386;0.016;2024-02-26T11:27:14;7.13;;;1.67;;
25359;SDS011;13311;51.386;0.016;2024-02-26T11:32:18;11.75;;;1.35;;
25359;SDS011;13311;51.386;0.016;2024-02-26T11:37:19;2.20;;;0.90;;
25359;SDS011;13311;51.386;0.016;2024-02-26T11:42:23;8.98;;;1.20;;
25359;SDS011;13311;51.386;0.016;2024-02-26T11:47:26;6.47;;;1.60;;
25359;SDS011;13311;51.386;0.016;2024-02-26T11:52:27;3.13;;;1.05;;
25359;SDS011;13311;51.386;0.016;2024-02-26T11:57:29;2.72;;;1.13;;
25359;SDS011;13311;51.386;0.016;2024-02-26T12:07:52;3.63;;;0.82;;
25359;SDS011;13311;51.386;0.016;2024-02-26T12:13:07;4.30;;;0.73;;
25359;SDS011;13311;51.386;0.016;2024-02-26T12:18:15;5.38;;;0.70;;
25359;SDS011;13311;51.386;0.016;2024-02-26T12:23:18;3.05;;;1.05;;
25359;SDS011;13311;51.386;0.016;2024-02-26T12:28:18;2.85;;;1.13;;
25359;SDS011;13311;51.386;0.016;2024-02-26T12:33:19;3.75;;;0.75;;
25359;SDS011;13311;51.386;0.016;2024-02-26T12:38:20;14.93;;;1.20;;
25359;SDS011;13311;51.386;0.016;2024-02-26T12:43:21;1.58;;;0.70;;
25359;SDS011;13311;51.386;0.016;2024-02-26T12:48:22;4.95;;;1.15;;
25359;SDS011;13311;51.386;0.016;2024-02-26T12:53:23;3.00;;;0.70;;
25359;SDS011;13311;51.386;0.016;2024-02-26T12:58:24;3.58;;;1.02;;
25359;SDS011;13311;51.386;0.016;2024-02-26T13:03:25;2.60;;;1.10;;
25359;SDS011;13311;51.386;0.016;2024-02-26T13:08:27;2.42;;;0.95;;
25359;SDS011;13311;51.386;0.016;2024-02-26T13:13:28;3.67;;;1.35;;
25359;SDS011;13311;51.386;0.016;2024-02-26T13:18:28;2.78;;;0.90;;
25359;SDS011;13311;51.386;0.016;2024-02-26T13:23:31;6.47;;;1.38;;
25359;SDS011;13311;51.386;0.016;2024-02-26T13:28:32;4.15;;;0.90;;
25359;SDS011;13311;51.386;0.016;2024-02-26T13:33:34;2.13;;;0.80;;
25359;SDS011;13311;51.386;0.016;2024-02-26T13:38:34;4.13;;;1.10;;
25359;SDS011;13311;51.386;0.016;2024-02-26T13:43:35;5.53;;;1.25;;
25359;SDS011;13311;51.386;0.016;2024-02-26T13:48:36;3.38;;;0.90;;
25359;SDS011;13311;51.386;0.016;2024-02-26T13:53:37;2.75;;;1.08;;
25359;SDS011;13311;51.386;0.016;2024-02-26T13:58:38;3.70;;;0.98;;
25359;SDS011;13311;51.386;0.016;2024-02-26T14:03:39;4.72;;;1.13;;
25359;SDS011;13311;51.386;0.016;2024-02-26T14:08:40;4.03;;;0.70;;
25359;SDS011;13311;51.386;0.016;2024-02-26T14:13:40;4.47;;;1.02;;
25359;SDS011;13311;51.386;0.016;2024-02-26T14:18:41;4.93;;;1.23;;
25359;SDS011;13311;51.386;0.016;2024-02-26T14:23:44;8.07;;;1.30;;
25359;SDS011;13311;51.386;0.016;2024-02-26T14:28:45;5.15;;;1.33;;
25359;SDS011;13311;51.386;0.016;2024-02-26T14:33:46;5.63;;;1.33;;
25359;SDS011;13311;51.386;0.016;2024-02-26T14:38:48;6.65;;;1.10;;
25359;SDS011;13311;51.386;0.016;2024-02-26T14:43:49;5.68;;;1.77;;
25359;SDS011;13311;51.386;0.016;2024-02-26T14:48:50;2.40;;;0.90;;
25359;SDS011;13311;51.386;0.016;2024-02-26T14:53:51;4.50;;;1.00;;
25359;SDS011;13311;51.386;0.016;2024-02-26T14:58:53;1.65;;;0.90;;
25359;SDS011;13311;51.386;0.016;2024-02-26T15:03:53;3.28;;;0.80;;
25359;SDS011;13311;51.386;0.016;2024-02-26T15:08:55;4.63;;;0.90;;
25359;SDS011;13311;51.386;0.016;2024-02-26T15:13:56;6.43;;;1.20;;
25359;SDS011;13311;51.386;0.016;2024-02-26T15:18:56;2.50;;;1.17;;
25359;SDS011;13311;51.386;0.016;2024-02-26T15:23:57;5.07;;;1.50;;
25359;SDS011;13311;51.386;0.016;2024-02-26T15:28:58;4.40;;;1.15;;
25359;SDS011;13311;51.386;0.016;2024-02-26T15:33:59;5.20;;;1.00;;
25359;SDS011;13311;51.386;0.016;2024-02-26T15:39:00;4.45;;;1.48;;
25359;SDS011;13311;51.386;0.016;2024-02-26T15:44:02;7.40;;;1.42;;
25359;SDS011;13311;51.386;0.016;2024-02-26T15:49:03;2.67;;;1.10;;
25359;SDS011;13311;51.386;0.016;2024-02-26T15:54:04;3.28;;;1.27;;
25359;SDS011;13311;51.386;0.016;2024-02-26T15:59:05;4.45;;;1.10;;
25359;SDS011;13311;51.386;0.016;2024-02-26T16:04:06;5.88;;;1.42;;
25359;SDS011;13311;51.386;0.016;2024-02-26T16:09:06;6.68;;;1.20;;
25359;SDS011;13311;51.386;0.016;2024-02-26T16:19:31;2.63;;;1.30;;
25359;SDS011;13311;51.386;0.016;2024-02-26T16:24:32;7.30;;;1.55;;
25359;SDS011;13311;51.386;0.016;2024-02-26T16:29:33;4.88;;;0.77;;
25359;SDS011;13311;51.386;0.016;2024-02-26T16:34:34;2.97;;;0.95;;
25359;SDS011;13311;51.386;0.016;2024-02-26T16:39:36;5.07;;;1.00;;
25359;SDS011;13311;51.386;0.016;2024-02-26T16:44:40;6.50;;;0.95;;
25359;SDS011;13311;51.386;0.016;2024-02-26T16:49:41;13.05;;;1.60;;
25359;SDS011;13311;51.386;0.016;2024-02-26T16:54:42;5.40;;;0.90;;
25359;SDS011;13311;51.386;0.016;2024-02-26T16:59:43;7.68;;;1.00;;
25359;SDS011;13311;51.386;0.016;2024-02-26T17:04:44;2.83;;;0.95;;
25359;SDS011;13311;51.386;0.016;2024-02-26T17:09:44;8.93;;;1.30;;
25359;SDS011;13311;51.386;0.016;2024-02-26T17:14:45;6.47;;;1.40;;
25359;SDS011;13311;51.386;0.016;2024-02-26T17:19:48;6.45;;;1.20;;
25359;SDS011;13311;51.386;0.016;2024-02-26T17:24:49;5.97;;;1.60;;
25359;SDS011;13311;51.386;0.016;2024-02-26T17:29:50;4.47;;;1.30;;
25359;SDS011;13311;51.386;0.016;2024-02-26T17:34:51;3.92;;;0.90;;
25359;SDS011;13311;51.386;0.016;2024-02-26T17:39:51;3.05;;;0.82;;
25359;SDS011;13311;51.386;0.016;2024-02-26T17:44:53;2.95;;;1.08;;
25359;SDS011;13311;51.386;0.016;2024-02-26T17:49:54;3.05;;;1.20;;
25359;SDS011;13311;51.386;0.016;2024-02-26T17:54:55;4.80;;;1.45;;
25359;SDS011;13311;51.386;0.016;2024-02-26T17:59:55;4.22;;;1.33;;
25359;SDS011;13311;51.386;0.016;2024-02-26T18:04:56;3.95;;;1.33;;
25359;SDS011;13311;51.386;0.016;2024-02-26T18:09:57;4.97;;;1.25;;
25359;SDS011;13311;51.386;0.016;2024-02-26T18:14:58;4.18;;;1.08;;
25359;SDS011;13311;51.386;0.016;2024-02-26T18:19:58;4.35;;;1.48;;
25359;SDS011;13311;51.386;0.016;2024-02-26T18:25:00;18.00;;;8.68;;
25359;SDS011;13311;51.386;0.016;2024-02-26T18:30:02;7.65;;;1.95;;
25359;SDS011;13311;51.386;0.016;2024-02-26T18:35:03;5.88;;;1.20;;
25359;SDS011;13311;51.386;0.016;2024-02-26T18:40:04;7.63;;;1.25;;
25359;SDS011;13311;51.386;0.016;2024-02-26T18:45:09;6.07;;;1.77;;
25359;SDS011;13311;51.386;0.016;2024-02-26T18:50:09;3.85;;;1.10;;
25359;SDS011;13311;51.386;0.016;2024-02-26T18:55:10;7.47;;;1.42;;
25359;SDS011;13311;51.386;0.016;2024-02-26T19:00:11;5.88;;;1.50;;
25359;SDS011;13311;51.386;0.016;2024-02-26T19:05:12;3.83;;;1.10;;
25359;SDS011;13311;51.386;0.016;2024-02-26T19:10:13;7.53;;;1.55;;
25359;SDS011;13311;51.386;0.016;2024-02-26T19:15:14;4.30;;;1.40;;
25359;SDS011;13311;51.386;0.016;2024-02-26T19:20:17;6.88;;;1.60;;
25359;SDS011;13311;51.386;0.016;2024-02-26T19:25:18;4.60;;;1.50;;
25359;SDS011;13311;51.386;0.016;2024-02-26T19:30:19;4.72;;;1.17;;
25359;SDS011;13311;51.386;0.016;2024-02-26T19:35:20;9.00;;;1.75;;
25359;SDS011;13311;51.386;0.016;2024-02-26T19:40:21;7.78;;;1.10;;
25359;SDS011;13311;51.386;0.016;2024-02-26T19:45:23;7.72;;;1.60;;
25359;SDS011;13311;51.386;0.016;2024-02-26T19:50:23;5.60;;;1.75;;
25359;SDS011;13311;51.386;0.016;2024-02-26T19:55:25;5.88;;;1.70;;
25359;SDS011;13311;51.386;0.016;2024-02-26T20:00:27;4.47;;;1.40;;
25359;SDS011;13311;51.386;0.016;2024-02-26T20:05:28;6.75;;;1.70;;
25359;SDS011;13311;51.386;0.016;2024-02-26T20:10:29;5.18;;;1.42;;
25359;SDS011;13311;51.386;0.016;2024-02-26T20:15:30;8.73;;;1.80;;
25359;SDS011;13311;51.386;0.016;2024-02-26T20:20:32;16.52;;;1.65;;
25359;SDS011;13311;51.386;0.016;2024-02-26T20:25:32;5.82;;;1.40;;
25359;SDS011;13311;51.386;0.016;2024-02-26T20:30:35;5.93;;;1.70;;
25359;SDS011;13311;51.386;0.016;2024-02-26T20:35:36;7.32;;;1.70;;
25359;SDS011;13311;51.386;0.016;2024-02-26T20:40:37;9.95;;;1.92;;
25359;SDS011;13311;51.386;0.016;2024-02-26T20:45:37;10.00;;;2.22;;
25359;SDS011;13311;51.386;0.016;2024-02-26T20:50:39;5.40;;;1.80;;
25359;SDS011;13311;51.386;0.016;2024-02-26T20:55:40;8.85;;;1.98;;
25359;SDS011;13311;51.386;0.016;2024-02-26T21:00:42;8.25;;;2.30;;
25359;SDS011;13311;51.386;0.016;2024-02-26T21:05:44;7.07;;;1.88;;
25359;SDS011;13311;51.386;0.016;2024-02-26T21:10:45;8.63;;;2.47;;
25359;SDS011;13311;51.386;0.016;2024-02-26T21:15:50;5.50;;;2.50;;
25359;SDS011;13311;51.386;0.016;2024-02-26T21:20:51;11.80;;;2.22;;
25359;SDS011;13311;51.386;0.016;2024-02-26T21:25:54;7.60;;;1.77;;
25359;SDS011;13311;51.386;0.016;2024-02-26T21:30:55;9.55;;;2.38;;
25359;SDS011;13311;51.386;0.016;2024-02-26T21:35:57;9.75;;;2.47;;
25359;SDS011;13311;51.386;0.016;2024-02-26T21:40:58;10.15;;;2.58;;
25359;SDS011;13311;51.386;0.016;2024-02-26T21:45:59;6.95;;;2.88;;
25359;SDS011;13311;51.386;0.016;2024-02-26T21:50:59;8.63;;;2.17;;
25359;SDS011;13311;51.386;0.016;2024-02-26T21:56:04;9.82;;;2.40;;
25359;SDS011;13311;51.386;0.016;2024-02-26T22:01:07;4.97;;;1.98;;
25359;SDS011;13311;51.386;0.016;2024-02-26T22:06:08;5.85;;;2.00;;
25359;SDS011;13311;51.386;0.016;2024-02-26T22:11:08;12.60;;;2.75;;
25359;SDS011;13311;51.386;0.016;2024-02-26T22:16:09;10.10;;;2.83;;
25359;SDS011;13311;51.386;0.016;2024-02-26T22:21:10;8.68;;;2.55;;
25359;SDS011;13311;51.386;0.016;2024-02-26T22:26:12;6.53;;;2.70;;
25359;SDS011;13311;51.386;0.016;2024-02-26T22:31:13;6.90;;;2.15;;
25359;SDS011;13311;51.386;0.016;2024-02-26T22:36:15;10.13;;;2.58;;
25359;SDS011;13311;51.386;0.016;2024-02-26T22:41:16;8.48;;;2.08;;
25359;SDS011;13311;51.386;0.016;2024-02-26T22:46:16;8.43;;;2.20;;
25359;SDS011;13311;51.386;0.016;2024-02-26T22:51:17;8.70;;;2.00;;
25359;SDS011;13311;51.386;0.016;2024-02-26T22:56:18;10.93;;;2.28;;
25359;SDS011;13311;51.386;0.016;2024-02-26T23:01:19;10.93;;;3.28;;
25359;SDS011;13311;51.386;0.016;2024-02-26T23:06:22;9.65;;;2.80;;
25359;SDS011;13311;51.386;0.016;2024-02-26T23:11:22;9.00;;;2.00;;
25359;SDS011;13311;51.386;0.016;2024-02-26T23:16:23;15.63;;;3.00;;
25359;SDS011;13311;51.386;0.016;2024-02-26T23:21:24;13.70;;;3.17;;
25359;SDS011;13311;51.386;0.016;2024-02-26T23:26:25;11.77;;;2.30;;
25359;SDS011;13311;51.386;0.016;2024-02-26T23:31:26;8.52;;;2.70;;
25359;SDS011;13311;51.386;0.016;2024-02-26T23:36:26;15.05;;;2.65;;
25359;SDS011;13311;51.386;0.016;2024-02-26T23:41:28;4.63;;;1.63;;
25359;SDS011;13311;51.386;0.016;2024-02-26T23:46:32;11.32;;;2.40;;
25359;SDS011;13311;51.386;0.016;2024-02-26T23:51:33;9.65;;;2.50;;
25359;SDS011;13311;51.386;0.016;2024-02-26T23:56:34;8.32;;;2.05;;
